Terminal Aerodrome Forecast
Issued by NWS

Home | Current Version | Previous Version | Text Only | Print | Product List | Glossary On
Versions: 1 2 3 4 5 6 7 8 9 10 11 12 13 14 15 16 17
527
FTAK31 PAJN 010401 AAC
TAFAJN
TAF AMD
PAJN 010401Z 0104/0124 12015G25KT P6SM -RA FEW010 BKN035 OVC050
      WS020/15040KT
      TEMPO 0104/0108 12015KT 4SM RA BR FEW008 OVC025
     FM012100 07010KT 6SM -RA BR SCT010 BKN025 OVC040=

USA.gov is the U.S. government's official web portal to all federal, state and local government web resources and services.